WetterOnline ( https://www.wetteronline.at )

Wetter aktuell Lutherstadt Wittenberg

Aktuelles Wetter: Wittenberg (106m)

6-stündlich | Neueste Meldungen
Ortszeit Temperatur Wetter
Do, 29.02. 7:00 -1.8° C fast wolkenlos
Do, 29.02. 1:00 -0.2° C bedeckt
Mi, 28.02. 19:00 2.6° C wolkig
Mi, 28.02. 13:00 6.0° C wolkenlos
Mi, 28.02. 7:00 2.4° C bedeckt
Mi, 28.02. 1:00 3.3° C bedeckt
Di, 27.02. 19:00 4.9° C bedeckt
Di, 27.02. 13:00 3.9° C bedeckt
Ortszeit Temperatur Wetter
Do, 29.02. 10:00 2.7° C leicht bewölkt
Do, 29.02. 9:50 2.7° C wolkig
Do, 29.02. 9:40 2.3° C bedeckt
Do, 29.02. 9:30 1.5° C wolkig
Do, 29.02. 9:20 1.5° C wolkig
Do, 29.02. 9:10 1.1° C bedeckt
Do, 29.02. 9:00 0.4° C leicht bewölkt
Do, 29.02. 8:30 -0.6° C wolkig
Do, 29.02. 8:00 -1.4° C fast wolkenlos
Do, 29.02. 7:30 -1.8° C wolkenlos
Do, 29.02. 7:00 -1.8° C fast wolkenlos
Ortszeit Relative Feuchte Sichtweite
Do, 29.02. 7:00 96% 2.7 km
Do, 29.02. 1:00 94% 5.0 km
Mi, 28.02. 19:00 81% 16 km
Mi, 28.02. 13:00 60% 40 km
Mi, 28.02. 7:00 92% 10 km
Mi, 28.02. 1:00 95% 7 km
Di, 27.02. 19:00 86% 15 km
Di, 27.02. 13:00 91% 9 km
Ortszeit Relative Feuchte Sichtweite
Do, 29.02. 10:00 82% 11 km
Do, 29.02. 9:50 82% -
Do, 29.02. 9:40 84% -
Do, 29.02. 9:30 85% 8 km
Do, 29.02. 9:20 85% -
Do, 29.02. 9:10 86% -
Do, 29.02. 9:00 88% 6 km
Do, 29.02. 8:30 90% 4.8 km
Do, 29.02. 8:00 93% 3.7 km
Do, 29.02. 7:30 96% 3.2 km
Do, 29.02. 7:00 96% 2.7 km
Ortszeit Niederschlagsmenge Niederschlagsart
Do, 29.02. 7:00 0.0 l/m2 in 12 Std. -
Do, 29.02. 1:00 0.0 l/m2 in 6 Std. -
Mi, 28.02. 19:00 0.0 l/m2 in 12 Std. -
Mi, 28.02. 13:00 0.0 l/m2 in 6 Std. -
Mi, 28.02. 7:00 0.1 l/m2 in 12 Std. Sprühregen
Mi, 28.02. 1:00 0.0 l/m2 in 6 Std. -
Di, 27.02. 19:00 0.0 l/m2 in 12 Std. -
Di, 27.02. 13:00 0.0 l/m2 in 6 Std. -
Ortszeit Niederschlagsmenge Niederschlagsart
Do, 29.02. 10:00 0.0 l/m2 in 1 Std. -
Do, 29.02. 9:50 keine Meldung -
Do, 29.02. 9:40 keine Meldung -
Do, 29.02. 9:30 0.0 l/m2 in 30 Min -
Do, 29.02. 9:20 keine Meldung -
Do, 29.02. 9:10 keine Meldung -
Do, 29.02. 9:00 0.0 l/m2 in 1 Std. -
Do, 29.02. 8:30 0.0 l/m2 in 30 Min -
Do, 29.02. 8:00 0.0 l/m2 in 1 Std. -
Do, 29.02. 7:30 0.0 l/m2 in 30 Min -
Do, 29.02. 7:00 0.0 l/m2 in 1 Std. -
Ortszeit Stärke Spitze Richtung
km/h Bft. km/h Grad Sektor
Do, 29.02. 7:00 9 2 17 100° O
Do, 29.02. 1:00 7 2 14 100° O
Mi, 28.02. 19:00 4 1 18 340° N
Mi, 28.02. 13:00 7 2 22 320° NW
Mi, 28.02. 7:00 7 2 22 330° NW
Mi, 28.02. 1:00 7 2 22 340° N
Di, 27.02. 19:00 9 2 22 10° N
Di, 27.02. 13:00 13 3 28 360° N
Ortszeit Stärke Spitze Richtung
km/h Bft. km/h Grad Sektor
Do, 29.02. 10:00 9 2 15 120° SO
Do, 29.02. 9:50 9 2 - 120° SO
Do, 29.02. 9:40 7 2 - 120° SO
Do, 29.02. 9:30 7 2 11 110° O
Do, 29.02. 9:20 7 2 - 110° O
Do, 29.02. 9:10 7 2 - 110° O
Do, 29.02. 9:00 9 2 13 120° SO
Do, 29.02. 8:30 7 2 14 110° O
Do, 29.02. 8:00 7 2 15 110° O
Do, 29.02. 7:30 7 2 14 110° O
Do, 29.02. 7:00 9 2 15 100° O
Ortszeit Untergrenze Bedeckung Gattung
total tief tief mittel hoch
Do, 29.02. 7:00 10500 m 1/8 0/8 - - -
Do, 29.02. 1:00 5100 m 8/8 8/8 - - -
Mi, 28.02. 19:00 9000 m 8/8 0/8 - - -
Mi, 28.02. 13:00 - 0/8 0/8 - - -
Mi, 28.02. 7:00 150 m 8/8 8/8 - - -
Mi, 28.02. 1:00 120 m 8/8 8/8 - - -
Di, 27.02. 19:00 270 m 8/8 8/8 - - -
Di, 27.02. 13:00 120 m 8/8 8/8 - - -
Ortszeit Bedeckungsgrad in Achtel und Wolkenuntergrenze
Do, 29.02. 10:00 3(10500m) 8(10500m)
Do, 29.02. 9:50 3(10500m) 8(10500m)
Do, 29.02. 9:40 8
Do, 29.02. 9:30 8(9000m) 8(10500m)
Do, 29.02. 9:20 8(9000m) 8(10500m)
Do, 29.02. 9:10 8
Do, 29.02. 9:00 8(9000m) 8(10500m)
Do, 29.02. 8:30 8(10500m)
Do, 29.02. 8:00 1(10500m)
Do, 29.02. 7:30 keine Wolken
Do, 29.02. 7:00 1(10500m)
Ortszeit Luftdruck NN (hPa) Tendenz (hPa in 3 Std.)
Do, 29.02. 7:00 1020 - 0,9
Do, 29.02. 1:00 1022 - 0,7
Mi, 28.02. 19:00 1023 + 0,6
Mi, 28.02. 13:00 1023 + 0,5
Mi, 28.02. 7:00 1021 + 1,3
Mi, 28.02. 1:00 1019 + 0,4
Di, 27.02. 19:00 1017 + 0,8
Di, 27.02. 13:00 1017 + 0,7
Ortszeit Luftdruck NN (hPa) Tendenz (hPa in 3 Std.)
Do, 29.02. 10:00 1019 - 0,6
Do, 29.02. 9:50 1019 keine Meldung
Do, 29.02. 9:40 1019 keine Meldung
Do, 29.02. 9:30 1019 - 0,5
Do, 29.02. 9:20 1019 keine Meldung
Do, 29.02. 9:10 1019 keine Meldung
Do, 29.02. 9:00 1019 - 0,4
Do, 29.02. 8:30 1019 - 0,7
Do, 29.02. 8:00 1020 - 0,8
Do, 29.02. 7:30 1020 - 0,7
Do, 29.02. 7:00 1020 - 0,9
Ortszeit Schneehöhe (cm)
Do, 29.02. 7:00 0
Do, 29.02. 1:00 0
Mi, 28.02. 19:00 0
Mi, 28.02. 13:00 0
Mi, 28.02. 7:00 0
Mi, 28.02. 1:00 0
Di, 27.02. 19:00 0
Di, 27.02. 13:00 0
Ortszeit Schneehöhe (cm)
Do, 29.02. 10:00 0
Do, 29.02. 9:50 0
Do, 29.02. 9:40 -
Do, 29.02. 9:30 0
Do, 29.02. 9:20 0
Do, 29.02. 9:10 -
Do, 29.02. 9:00 0
Do, 29.02. 8:30 0
Do, 29.02. 8:00 0
Do, 29.02. 7:30 0
Do, 29.02. 7:00 0
Link zu dieser Seite / Seite empfehlen

Das Wetter in ...